sensor_id;sensor_type;location;lat;lon;timestamp;pressure;altitude;pressure_sealevel;temperature;humidity
65276;BME280;51875;49.994;14.052;2022-07-06T00:00:19;98675.69;;;14.49;100.00
65276;BME280;51875;49.994;14.052;2022-07-06T00:01:52;98678.72;;;14.40;100.00
65276;BME280;51875;49.994;14.052;2022-07-06T00:03:07;98671.72;;;14.39;100.00
65276;BME280;51875;49.994;14.052;2022-07-06T00:04:23;98674.47;;;14.36;100.00
65276;BME280;51875;49.994;14.052;2022-07-06T00:05:38;98678.94;;;14.34;100.00
65276;BME280;51875;49.994;14.052;2022-07-06T00:06:54;98681.34;;;14.40;100.00
65276;BME280;51875;49.994;14.052;2022-07-06T00:08:10;98683.97;;;14.40;100.00
65276;BME280;51875;49.994;14.052;2022-07-06T00:09:25;98689.47;;;14.56;100.00
65276;BME280;51875;49.994;14.052;2022-07-06T00:10:41;98688.38;;;14.62;100.00
65276;BME280;51875;49.994;14.052;2022-07-06T00:11:57;98693.47;;;14.66;100.00
65276;BME280;51875;49.994;14.052;2022-07-06T00:13:12;98691.31;;;14.76;100.00
65276;BME280;51875;49.994;14.052;2022-07-06T00:14:28;98699.84;;;14.83;100.00
65276;BME280;51875;49.994;14.052;2022-07-06T00:15:43;98700.03;;;14.78;100.00
65276;BME280;51875;49.994;14.052;2022-07-06T00:16:59;98701.03;;;14.76;100.00
65276;BME280;51875;49.994;14.052;2022-07-06T00:18:15;98704.50;;;14.76;100.00
65276;BME280;51875;49.994;14.052;2022-07-06T00:19:30;98698.31;;;14.77;100.00
65276;BME280;51875;49.994;14.052;2022-07-06T00:20:46;98698.13;;;14.60;100.00
65276;BME280;51875;49.994;14.052;2022-07-06T00:22:01;98698.44;;;14.52;100.00
65276;BME280;51875;49.994;14.052;2022-07-06T00:23:17;98697.03;;;14.43;100.00
65276;BME280;51875;49.994;14.052;2022-07-06T00:24:33;98690.16;;;14.39;100.00
65276;BME280;51875;49.994;14.052;2022-07-06T00:25:48;98700.25;;;14.27;100.00
65276;BME280;51875;49.994;14.052;2022-07-06T00:27:04;98700.09;;;14.32;100.00
65276;BME280;51875;49.994;14.052;2022-07-06T00:28:19;98695.22;;;14.21;100.00
65276;BME280;51875;49.994;14.052;2022-07-06T00:29:35;98703.59;;;14.09;100.00
65276;BME280;51875;49.994;14.052;2022-07-06T00:30:52;98707.38;;;14.02;100.00
65276;BME280;51875;49.994;14.052;2022-07-06T00:32:07;98706.75;;;13.95;100.00
65276;BME280;51875;49.994;14.052;2022-07-06T00:33:23;98702.13;;;14.02;100.00
65276;BME280;51875;49.994;14.052;2022-07-06T00:34:38;98710.81;;;14.04;100.00
65276;BME280;51875;49.994;14.052;2022-07-06T00:35:57;98708.44;;;13.97;100.00
65276;BME280;51875;49.994;14.052;2022-07-06T00:37:13;98707.88;;;13.88;100.00
65276;BME280;51875;49.994;14.052;2022-07-06T00:38:30;98711.78;;;13.77;100.00
65276;BME280;51875;49.994;14.052;2022-07-06T00:39:46;98712.09;;;13.69;100.00
65276;BME280;51875;49.994;14.052;2022-07-06T00:41:01;98704.97;;;13.72;100.00
65276;BME280;51875;49.994;14.052;2022-07-06T00:42:17;98708.47;;;13.72;100.00
65276;BME280;51875;49.994;14.052;2022-07-06T00:43:50;98704.19;;;13.69;100.00
65276;BME280;51875;49.994;14.052;2022-07-06T00:45:06;98702.22;;;13.75;100.00
65276;BME280;51875;49.994;14.052;2022-07-06T00:46:31;98697.78;;;13.77;100.00
65276;BME280;51875;49.994;14.052;2022-07-06T00:47:47;98698.63;;;13.77;100.00
65276;BME280;51875;49.994;14.052;2022-07-06T00:49:02;98701.19;;;13.79;100.00
65276;BME280;51875;49.994;14.052;2022-07-06T00:50:18;98686.16;;;13.82;100.00
65276;BME280;51875;49.994;14.052;2022-07-06T00:51:37;98690.66;;;13.79;100.00
65276;BME280;51875;49.994;14.052;2022-07-06T00:52:55;98690.78;;;13.76;100.00
65276;BME280;51875;49.994;14.052;2022-07-06T00:54:11;98701.31;;;13.76;100.00
65276;BME280;51875;49.994;14.052;2022-07-06T00:55:32;98701.44;;;13.73;100.00
65276;BME280;51875;49.994;14.052;2022-07-06T00:56:48;98700.34;;;13.78;100.00
65276;BME280;51875;49.994;14.052;2022-07-06T00:58:04;98699.94;;;13.89;100.00
65276;BME280;51875;49.994;14.052;2022-07-06T00:59:20;98710.50;;;13.88;100.00
65276;BME280;51875;49.994;14.052;2022-07-06T01:00:36;98696.53;;;13.87;100.00
65276;BME280;51875;49.994;14.052;2022-07-06T01:01:52;98695.59;;;13.88;100.00
65276;BME280;51875;49.994;14.052;2022-07-06T01:03:08;98696.53;;;13.87;100.00
65276;BME280;51875;49.994;14.052;2022-07-06T01:04:24;98705.09;;;13.92;100.00
65276;BME280;51875;49.994;14.052;2022-07-06T01:05:39;98696.28;;;13.93;100.00
65276;BME280;51875;49.994;14.052;2022-07-06T01:06:56;98700.00;;;13.88;100.00
65276;BME280;51875;49.994;14.052;2022-07-06T01:08:12;98698.34;;;13.85;100.00
65276;BME280;51875;49.994;14.052;2022-07-06T01:09:29;98696.69;;;13.82;100.00
65276;BME280;51875;49.994;14.052;2022-07-06T01:10:44;98696.69;;;13.82;100.00
65276;BME280;51875;49.994;14.052;2022-07-06T01:12:00;98695.09;;;13.78;100.00
65276;BME280;51875;49.994;14.052;2022-07-06T01:13:16;98698.56;;;13.79;100.00
65276;BME280;51875;49.994;14.052;2022-07-06T01:14:32;98686.31;;;13.78;100.00
65276;BME280;51875;49.994;14.052;2022-07-06T01:15:48;98697.78;;;13.77;100.00
65276;BME280;51875;49.994;14.052;2022-07-06T01:17:03;98688.31;;;13.71;100.00
65276;BME280;51875;49.994;14.052;2022-07-06T01:18:19;98699.81;;;13.68;100.00
65276;BME280;51875;49.994;14.052;2022-07-06T01:19:35;98694.53;;;13.68;100.00
65276;BME280;51875;49.994;14.052;2022-07-06T01:20:50;98702.78;;;13.59;100.00
65276;BME280;51875;49.994;14.052;2022-07-06T01:22:06;98702.28;;;13.49;100.00
65276;BME280;51875;49.994;14.052;2022-07-06T01:23:21;98704.03;;;13.49;100.00
65276;BME280;51875;49.994;14.052;2022-07-06T01:24:37;98697.75;;;13.53;100.00
65276;BME280;51875;49.994;14.052;2022-07-06T01:25:55;98696.63;;;13.60;100.00
65276;BME280;51875;49.994;14.052;2022-07-06T01:27:11;98702.84;;;13.58;100.00
65276;BME280;51875;49.994;14.052;2022-07-06T01:28:27;98703.00;;;13.53;100.00
65276;BME280;51875;49.994;14.052;2022-07-06T01:29:42;98706.81;;;13.44;100.00
65276;BME280;51875;49.994;14.052;2022-07-06T01:30:58;98700.72;;;13.42;100.00
65276;BME280;51875;49.994;14.052;2022-07-06T01:32:14;98698.97;;;13.42;100.00
65276;BME280;51875;49.994;14.052;2022-07-06T01:33:31;98697.31;;;13.40;100.00
65276;BME280;51875;49.994;14.052;2022-07-06T01:34:47;98696.34;;;13.42;100.00
65276;BME280;51875;49.994;14.052;2022-07-06T01:36:02;98699.16;;;13.36;100.00
65276;BME280;51875;49.994;14.052;2022-07-06T01:37:18;98697.34;;;13.38;100.00
65276;BME280;51875;49.994;14.052;2022-07-06T01:38:46;98695.34;;;13.47;100.00
65276;BME280;51875;49.994;14.052;2022-07-06T01:40:07;98692.84;;;13.44;100.00
65276;BME280;51875;49.994;14.052;2022-07-06T01:41:23;98685.22;;;13.34;100.00
65276;BME280;51875;49.994;14.052;2022-07-06T01:42:39;98687.16;;;13.29;100.00
65276;BME280;51875;49.994;14.052;2022-07-06T01:43:55;98690.47;;;13.34;100.00
65276;BME280;51875;49.994;14.052;2022-07-06T01:45:11;98684.44;;;13.32;100.00
65276;BME280;51875;49.994;14.052;2022-07-06T01:46:26;98686.09;;;13.35;100.00
65276;BME280;51875;49.994;14.052;2022-07-06T01:47:42;98685.81;;;13.17;100.00
65276;BME280;51875;49.994;14.052;2022-07-06T01:48:58;98682.38;;;13.15;100.00
65276;BME280;51875;49.994;14.052;2022-07-06T01:50:14;98684.44;;;13.07;100.00
65276;BME280;51875;49.994;14.052;2022-07-06T01:51:29;98681.16;;;13.00;100.00
65276;BME280;51875;49.994;14.052;2022-07-06T01:52:45;98684.78;;;12.96;100.00
65276;BME280;51875;49.994;14.052;2022-07-06T01:54:00;98684.03;;;12.92;100.00
65276;BME280;51875;49.994;14.052;2022-07-06T01:55:16;98689.28;;;12.92;100.00
65276;BME280;51875;49.994;14.052;2022-07-06T01:56:31;98682.09;;;12.97;100.00
65276;BME280;51875;49.994;14.052;2022-07-06T01:57:47;98683.16;;;12.92;100.00
65276;BME280;51875;49.994;14.052;2022-07-06T01:59:03;98684.78;;;12.96;100.00
65276;BME280;51875;49.994;14.052;2022-07-06T02:00:18;98684.84;;;12.94;100.00
65276;BME280;51875;49.994;14.052;2022-07-06T02:01:34;98683.97;;;12.94;100.00
65276;BME280;51875;49.994;14.052;2022-07-06T02:02:49;98685.94;;;12.87;100.00
65276;BME280;51875;49.994;14.052;2022-07-06T02:04:05;98682.94;;;12.98;100.00
65276;BME280;51875;49.994;14.052;2022-07-06T02:05:21;98686.66;;;12.92;100.00
65276;BME280;51875;49.994;14.052;2022-07-06T02:06:36;98690.75;;;13.01;100.00
65276;BME280;51875;49.994;14.052;2022-07-06T02:07:52;98692.47;;;13.02;100.00
65276;BME280;51875;49.994;14.052;2022-07-06T02:09:07;98699.47;;;13.02;100.00
65276;BME280;51875;49.994;14.052;2022-07-06T02:10:23;98700.25;;;13.05;100.00
65276;BME280;51875;49.994;14.052;2022-07-06T02:11:39;98701.84;;;13.09;100.00
65276;BME280;51875;49.994;14.052;2022-07-06T02:12:54;98701.84;;;13.09;100.00
65276;BME280;51875;49.994;14.052;2022-07-06T02:14:10;98706.88;;;13.42;100.00
65276;BME280;51875;49.994;14.052;2022-07-06T02:15:25;98710.06;;;13.52;100.00
65276;BME280;51875;49.994;14.052;2022-07-06T02:16:41;98711.25;;;13.67;100.00
65276;BME280;51875;49.994;14.052;2022-07-06T02:17:56;98710.34;;;13.68;100.00
65276;BME280;51875;49.994;14.052;2022-07-06T02:19:12;98717.91;;;13.78;100.00
65276;BME280;51875;49.994;14.052;2022-07-06T02:20:28;98716.16;;;13.78;100.00
65276;BME280;51875;49.994;14.052;2022-07-06T02:21:43;98721.91;;;13.88;100.00
65276;BME280;51875;49.994;14.052;2022-07-06T02:22:59;98715.50;;;13.95;100.00
65276;BME280;51875;49.994;14.052;2022-07-06T02:24:14;98714.88;;;13.89;100.00
65276;BME280;51875;49.994;14.052;2022-07-06T02:25:30;98718.69;;;13.80;100.00
65276;BME280;51875;49.994;14.052;2022-07-06T02:26:45;98717.56;;;13.87;100.00
65276;BME280;51875;49.994;14.052;2022-07-06T02:28:01;98722.72;;;13.90;100.00
65276;BME280;51875;49.994;14.052;2022-07-06T02:29:17;98725.59;;;13.84;100.00
65276;BME280;51875;49.994;14.052;2022-07-06T02:30:32;98718.69;;;13.80;100.00
65276;BME280;51875;49.994;14.052;2022-07-06T02:31:48;98722.66;;;13.68;100.00
65276;BME280;51875;49.994;14.052;2022-07-06T02:33:03;98721.06;;;13.64;100.00
65276;BME280;51875;49.994;14.052;2022-07-06T02:34:19;98725.59;;;13.59;100.00
65276;BME280;51875;49.994;14.052;2022-07-06T02:35:35;98723.97;;;13.56;100.00
65276;BME280;51875;49.994;14.052;2022-07-06T02:36:50;98715.31;;;13.52;100.00
65276;BME280;51875;49.994;14.052;2022-07-06T02:38:06;98717.22;;;13.47;100.00
65276;BME280;51875;49.994;14.052;2022-07-06T02:39:21;98713.78;;;13.45;100.00
65276;BME280;51875;49.994;14.052;2022-07-06T02:40:37;98702.44;;;13.43;100.00
65276;BME280;51875;49.994;14.052;2022-07-06T02:41:53;98710.34;;;13.43;100.00
65276;BME280;51875;49.994;14.052;2022-07-06T02:43:09;98705.16;;;13.41;100.00
65276;BME280;51875;49.994;14.052;2022-07-06T02:44:24;98705.19;;;13.40;100.00
65276;BME280;51875;49.994;14.052;2022-07-06T02:45:40;98703.41;;;13.40;100.00
65276;BME280;51875;49.994;14.052;2022-07-06T02:46:56;98700.97;;;13.36;100.00
65276;BME280;51875;49.994;14.052;2022-07-06T02:48:11;98707.22;;;13.32;100.00
65276;BME280;51875;49.994;14.052;2022-07-06T02:49:27;98695.84;;;13.31;100.00
65276;BME280;51875;49.994;14.052;2022-07-06T02:50:43;98693.22;;;13.31;100.00
65276;BME280;51875;49.994;14.052;2022-07-06T02:51:58;98696.78;;;13.30;100.00
65276;BME280;51875;49.994;14.052;2022-07-06T02:53:14;98702.19;;;13.25;100.00
65276;BME280;51875;49.994;14.052;2022-07-06T02:54:29;98705.72;;;13.24;100.00
65276;BME280;51875;49.994;14.052;2022-07-06T02:55:45;98713.00;;;13.16;100.00
65276;BME280;51875;49.994;14.052;2022-07-06T02:57:00;98712.16;;;13.16;100.00
65276;BME280;51875;49.994;14.052;2022-07-06T02:58:16;98711.94;;;13.22;100.00
65276;BME280;51875;49.994;14.052;2022-07-06T02:59:32;98708.28;;;13.26;100.00
65276;BME280;51875;49.994;14.052;2022-07-06T03:00:47;98715.28;;;13.27;100.00
65276;BME280;51875;49.994;14.052;2022-07-06T03:02:04;98709.16;;;13.26;100.00
65276;BME280;51875;49.994;14.052;2022-07-06T03:03:19;98708.22;;;13.29;100.00
65276;BME280;51875;49.994;14.052;2022-07-06T03:04:35;98706.41;;;13.30;100.00
65276;BME280;51875;49.994;14.052;2022-07-06T03:05:51;98711.63;;;13.31;100.00
65276;BME280;51875;49.994;14.052;2022-07-06T03:07:06;98707.28;;;13.30;100.00
65276;BME280;51875;49.994;14.052;2022-07-06T03:08:22;98711.63;;;13.31;100.00
65276;BME280;51875;49.994;14.052;2022-07-06T03:09:38;98715.34;;;13.25;100.00
65276;BME280;51875;49.994;14.052;2022-07-06T03:10:53;98707.47;;;13.24;100.00
65276;BME280;51875;49.994;14.052;2022-07-06T03:12:09;98711.09;;;13.21;100.00
65276;BME280;51875;49.994;14.052;2022-07-06T03:13:24;98712.75;;;13.24;100.00
65276;BME280;51875;49.994;14.052;2022-07-06T03:14:40;98717.81;;;13.30;100.00
65276;BME280;51875;49.994;14.052;2022-07-06T03:15:56;98718.50;;;13.35;100.00
65276;BME280;51875;49.994;14.052;2022-07-06T03:17:12;98723.75;;;13.35;100.00
65276;BME280;51875;49.994;14.052;2022-07-06T03:18:27;98729.25;;;13.29;100.00
65276;BME280;51875;49.994;14.052;2022-07-06T03:19:43;98730.22;;;13.25;100.00
65276;BME280;51875;49.994;14.052;2022-07-06T03:20:58;98729.50;;;13.21;100.00
65276;BME280;51875;49.994;14.052;2022-07-06T03:22:14;98737.41;;;13.21;100.00
65276;BME280;51875;49.994;14.052;2022-07-06T03:23:30;98736.63;;;13.18;100.00
65276;BME280;51875;49.994;14.052;2022-07-06T03:24:46;98742.69;;;13.20;100.00
65276;BME280;51875;49.994;14.052;2022-07-06T03:26:02;98745.31;;;13.20;100.00
65276;BME280;51875;49.994;14.052;2022-07-06T03:27:17;98752.25;;;13.22;100.00
65276;BME280;51875;49.994;14.052;2022-07-06T03:28:33;98750.47;;;13.23;100.00
65276;BME280;51875;49.994;14.052;2022-07-06T03:29:48;98750.44;;;13.24;100.00
65276;BME280;51875;49.994;14.052;2022-07-06T03:31:04;98744.25;;;13.25;100.00
65276;BME280;51875;49.994;14.052;2022-07-06T03:32:19;98741.59;;;13.27;100.00
65276;BME280;51875;49.994;14.052;2022-07-06T03:33:35;98748.59;;;13.26;100.00
65276;BME280;51875;49.994;14.052;2022-07-06T03:34:51;98747.81;;;13.24;100.00
65276;BME280;51875;49.994;14.052;2022-07-06T03:36:06;98754.81;;;13.24;100.00
65276;BME280;51875;49.994;14.052;2022-07-06T03:37:22;98763.72;;;13.20;100.00
65276;BME280;51875;49.994;14.052;2022-07-06T03:38:38;98762.81;;;13.21;100.00
65276;BME280;51875;49.994;14.052;2022-07-06T03:39:53;98764.50;;;13.23;100.00
65276;BME280;51875;49.994;14.052;2022-07-06T03:41:09;98760.03;;;13.25;100.00
65276;BME280;51875;49.994;14.052;2022-07-06T03:42:25;98757.28;;;13.28;100.00
65276;BME280;51875;49.994;14.052;2022-07-06T03:43:40;98751.19;;;13.28;100.00
65276;BME280;51875;49.994;14.052;2022-07-06T03:44:56;98758.91;;;13.33;100.00
65276;BME280;51875;49.994;14.052;2022-07-06T03:46:11;98764.06;;;13.36;100.00
65276;BME280;51875;49.994;14.052;2022-07-06T03:47:27;98762.13;;;13.41;100.00
65276;BME280;51875;49.994;14.052;2022-07-06T03:48:42;98769.91;;;13.46;100.00
65276;BME280;51875;49.994;14.052;2022-07-06T03:49:58;98774.09;;;13.51;100.00
65276;BME280;51875;49.994;14.052;2022-07-06T03:51:14;98766.97;;;13.55;100.00
65276;BME280;51875;49.994;14.052;2022-07-06T03:52:30;98773.59;;;13.65;100.00
65276;BME280;51875;49.994;14.052;2022-07-06T03:53:45;98765.38;;;13.75;100.00
65276;BME280;51875;49.994;14.052;2022-07-06T03:55:01;98775.53;;;13.86;100.00
65276;BME280;51875;49.994;14.052;2022-07-06T03:56:16;98786.63;;;13.94;100.00
65276;BME280;51875;49.994;14.052;2022-07-06T03:57:44;98776.22;;;13.91;100.00
65276;BME280;51875;49.994;14.052;2022-07-06T03:59:01;98780.56;;;13.92;100.00
65276;BME280;51875;49.994;14.052;2022-07-06T04:00:17;98781.09;;;14.02;100.00
65276;BME280;51875;49.994;14.052;2022-07-06T04:01:33;98782.66;;;14.07;100.00
65276;BME280;51875;49.994;14.052;2022-07-06T04:02:49;98788.66;;;14.11;100.00
65276;BME280;51875;49.994;14.052;2022-07-06T04:04:04;98797.38;;;14.13;100.00
65276;BME280;51875;49.994;14.052;2022-07-06T04:05:20;98806.97;;;14.14;100.00
65276;BME280;51875;49.994;14.052;2022-07-06T04:06:36;98814.47;;;14.25;100.00
65276;BME280;51875;49.994;14.052;2022-07-06T04:07:52;98819.84;;;14.22;100.00
65276;BME280;51875;49.994;14.052;2022-07-06T04:09:07;98828.31;;;14.30;100.00
65276;BME280;51875;49.994;14.052;2022-07-06T04:10:24;98834.16;;;14.38;100.00
65276;BME280;51875;49.994;14.052;2022-07-06T04:11:40;98835.94;;;14.38;100.00
65276;BME280;51875;49.994;14.052;2022-07-06T04:12:56;98837.75;;;14.36;100.00
65276;BME280;51875;49.994;14.052;2022-07-06T04:14:11;98842.34;;;14.31;100.00
65276;BME280;51875;49.994;14.052;2022-07-06T04:15:27;98851.28;;;14.26;100.00
65276;BME280;51875;49.994;14.052;2022-07-06T04:16:42;98841.44;;;14.32;100.00
65276;BME280;51875;49.994;14.052;2022-07-06T04:17:58;98846.66;;;14.33;100.00
65276;BME280;51875;49.994;14.052;2022-07-06T04:19:14;98851.84;;;14.35;100.00
65276;BME280;51875;49.994;14.052;2022-07-06T04:20:30;98851.09;;;14.31;100.00
65276;BME280;51875;49.994;14.052;2022-07-06T04:21:45;98846.66;;;14.33;100.00
65276;BME280;51875;49.994;14.052;2022-07-06T04:23:01;98846.94;;;14.25;100.00
65276;BME280;51875;49.994;14.052;2022-07-06T04:24:16;98847.84;;;14.24;100.00
65276;BME280;51875;49.994;14.052;2022-07-06T04:25:32;98851.47;;;14.22;100.00
65276;BME280;51875;49.994;14.052;2022-07-06T04:26:48;98849.63;;;14.24;100.00
65276;BME280;51875;49.994;14.052;2022-07-06T04:28:03;98847.75;;;14.27;100.00
65276;BME280;51875;49.994;14.052;2022-07-06T04:29:19;98844.13;;;14.30;100.00
65276;BME280;51875;49.994;14.052;2022-07-06T04:30:35;98840.81;;;14.25;100.00
65276;BME280;51875;49.994;14.052;2022-07-06T04:31:50;98835.88;;;14.16;100.00
65276;BME280;51875;49.994;14.052;2022-07-06T04:33:06;98817.28;;;14.20;100.00
65276;BME280;51875;49.994;14.052;2022-07-06T04:34:21;98813.56;;;14.26;100.00
65276;BME280;51875;49.994;14.052;2022-07-06T04:35:37;98796.78;;;14.29;100.00
65276;BME280;51875;49.994;14.052;2022-07-06T04:36:53;98783.66;;;14.27;100.00
65276;BME280;51875;49.994;14.052;2022-07-06T04:38:08;98787.03;;;14.31;100.00
65276;BME280;51875;49.994;14.052;2022-07-06T04:39:24;98783.84;;;14.22;100.00
65276;BME280;51875;49.994;14.052;2022-07-06T04:40:39;98791.06;;;14.17;100.00
65276;BME280;51875;49.994;14.052;2022-07-06T04:41:55;98790.31;;;14.13;100.00
65276;BME280;51875;49.994;14.052;2022-07-06T04:43:11;98791.00;;;14.19;100.00
65276;BME280;51875;49.994;14.052;2022-07-06T04:44:26;98795.91;;;14.28;100.00
65276;BME280;51875;49.994;14.052;2022-07-06T04:45:42;98793.16;;;14.31;100.00
65276;BME280;51875;49.994;14.052;2022-07-06T04:46:58;98791.44;;;14.30;100.00
65276;BME280;51875;49.994;14.052;2022-07-06T04:48:13;98784.53;;;14.27;100.00
65276;BME280;51875;49.994;14.052;2022-07-06T04:49:29;98780.22;;;14.25;100.00
65276;BME280;51875;49.994;14.052;2022-07-06T04:50:44;98774.16;;;14.23;100.00
65276;BME280;51875;49.994;14.052;2022-07-06T04:52:00;98783.00;;;14.22;100.00
65276;BME280;51875;49.994;14.052;2022-07-06T04:53:16;98778.56;;;14.22;100.00
65276;BME280;51875;49.994;14.052;2022-07-06T04:54:31;98773.41;;;14.19;100.00
65276;BME280;51875;49.994;14.052;2022-07-06T04:55:47;98775.25;;;14.17;100.00
65276;BME280;51875;49.994;14.052;2022-07-06T04:57:03;98775.13;;;14.20;100.00
65276;BME280;51875;49.994;14.052;2022-07-06T04:58:19;98771.59;;;14.21;100.00
65276;BME280;51875;49.994;14.052;2022-07-06T04:59:34;98772.50;;;14.20;100.00
65276;BME280;51875;49.994;14.052;2022-07-06T05:00:50;98778.47;;;14.25;100.00
65276;BME280;51875;49.994;14.052;2022-07-06T05:02:06;98769.53;;;14.30;100.00
65276;BME280;51875;49.994;14.052;2022-07-06T05:03:21;98778.19;;;14.33;100.00
65276;BME280;51875;49.994;14.052;2022-07-06T05:04:37;98771.00;;;14.37;100.00
65276;BME280;51875;49.994;14.052;2022-07-06T05:05:53;98772.72;;;14.38;100.00
65276;BME280;51875;49.994;14.052;2022-07-06T05:07:08;98782.41;;;14.37;100.00
65276;BME280;51875;49.994;14.052;2022-07-06T05:08:24;98786.81;;;14.37;100.00
65276;BME280;51875;49.994;14.052;2022-07-06T05:09:39;98787.56;;;14.40;100.00
65276;BME280;51875;49.994;14.052;2022-07-06T05:10:55;98791.69;;;14.48;100.00
65276;BME280;51875;49.994;14.052;2022-07-06T05:12:11;98787.38;;;14.45;100.00
65276;BME280;51875;49.994;14.052;2022-07-06T05:13:26;98795.88;;;14.53;100.00
65276;BME280;51875;49.994;14.052;2022-07-06T05:14:42;98788.63;;;14.59;100.00
65276;BME280;51875;49.994;14.052;2022-07-06T05:15:58;98788.28;;;14.68;100.00
65276;BME280;51875;49.994;14.052;2022-07-06T05:17:13;98788.66;;;14.81;100.00
65276;BME280;51875;49.994;14.052;2022-07-06T05:18:29;98791.31;;;14.81;100.00
65276;BME280;51875;49.994;14.052;2022-07-06T05:19:45;98790.25;;;14.85;100.00
65276;BME280;51875;49.994;14.052;2022-07-06T05:21:01;98800.50;;;14.93;100.00
65276;BME280;51875;49.994;14.052;2022-07-06T05:22:16;98804.66;;;14.99;100.00
65276;BME280;51875;49.994;14.052;2022-07-06T05:23:32;98798.16;;;15.07;100.00
65276;BME280;51875;49.994;14.052;2022-07-06T05:24:47;98811.84;;;15.17;100.00
65276;BME280;51875;49.994;14.052;2022-07-06T05:26:03;98802.09;;;15.19;100.00
65276;BME280;51875;49.994;14.052;2022-07-06T05:27:19;98808.00;;;15.24;100.00
65276;BME280;51875;49.994;14.052;2022-07-06T05:28:34;98810.66;;;15.24;100.00
65276;BME280;51875;49.994;14.052;2022-07-06T05:29:50;98816.53;;;15.31;100.00
65276;BME280;51875;49.994;14.052;2022-07-06T05:31:05;98817.75;;;15.45;100.00
65276;BME280;51875;49.994;14.052;2022-07-06T05:32:21;98821.94;;;15.49;100.00
65276;BME280;51875;49.994;14.052;2022-07-06T05:33:37;98823.19;;;15.40;100.00
65276;BME280;51875;49.994;14.052;2022-07-06T05:34:52;98820.19;;;15.49;100.00
65276;BME280;51875;49.994;14.052;2022-07-06T05:36:08;98815.69;;;15.51;100.00
65276;BME280;51875;49.994;14.052;2022-07-06T05:37:24;98821.94;;;15.49;100.00
65276;BME280;51875;49.994;14.052;2022-07-06T05:38:40;98820.38;;;15.45;100.00
65276;BME280;51875;49.994;14.052;2022-07-06T05:39:55;98818.28;;;15.53;100.00
65276;BME280;51875;49.994;14.052;2022-07-06T05:41:11;98816.03;;;15.64;100.00
65276;BME280;51875;49.994;14.052;2022-07-06T05:42:26;98819.34;;;15.70;100.00
65276;BME280;51875;49.994;14.052;2022-07-06T05:43:42;98817.53;;;15.70;100.00
65276;BME280;51875;49.994;14.052;2022-07-06T05:44:57;98823.41;;;15.77;100.00
65276;BME280;51875;49.994;14.052;2022-07-06T05:46:13;98821.94;;;15.92;100.00
65276;BME280;51875;49.994;14.052;2022-07-06T05:47:29;98823.69;;;15.91;100.00
65276;BME280;51875;49.994;14.052;2022-07-06T05:49:03;98823.69;;;15.91;100.00
65276;BME280;51875;49.994;14.052;2022-07-06T05:50:37;98820.81;;;15.98;100.00
65276;BME280;51875;49.994;14.052;2022-07-06T05:51:52;98822.13;;;16.08;100.00
65276;BME280;51875;49.994;14.052;2022-07-06T05:53:08;98831.63;;;16.12;100.00
65276;BME280;51875;49.994;14.052;2022-07-06T05:54:23;98833.28;;;16.15;100.00
65276;BME280;51875;49.994;14.052;2022-07-06T05:55:39;98839.94;;;16.23;100.00
65276;BME280;51875;49.994;14.052;2022-07-06T05:56:55;98844.13;;;16.28;100.00
65276;BME280;51875;49.994;14.052;2022-07-06T05:58:10;98842.72;;;16.20;100.00
65276;BME280;51875;49.994;14.052;2022-07-06T05:59:26;98842.78;;;16.19;100.00
65276;BME280;51875;49.994;14.052;2022-07-06T06:00:41;98848.84;;;16.21;100.00
65276;BME280;51875;49.994;14.052;2022-07-06T06:01:57;98851.69;;;16.16;100.00
65276;BME280;51875;49.994;14.052;2022-07-06T06:03:12;98855.88;;;16.01;100.00
65276;BME280;51875;49.994;14.052;2022-07-06T06:04:31;98869.28;;;15.97;100.00
65276;BME280;51875;49.994;14.052;2022-07-06T06:05:49;98869.63;;;15.87;100.00
65276;BME280;51875;49.994;14.052;2022-07-06T06:07:05;98875.97;;;15.83;100.00
65276;BME280;51875;49.994;14.052;2022-07-06T06:08:20;98867.31;;;15.79;100.00
65276;BME280;51875;49.994;14.052;2022-07-06T06:09:36;98870.28;;;15.72;100.00
65276;BME280;51875;49.994;14.052;2022-07-06T06:10:52;98866.72;;;15.52;100.00
65276;BME280;51875;49.994;14.052;2022-07-06T06:12:08;98871.41;;;15.66;100.00
65276;BME280;51875;49.994;14.052;2022-07-06T06:13:24;98873.06;;;15.68;100.00
65276;BME280;51875;49.994;14.052;2022-07-06T06:14:39;98882.75;;;15.68;100.00
65276;BME280;51875;49.994;14.052;2022-07-06T06:15:55;98881.63;;;15.74;100.00
65276;BME280;51875;49.994;14.052;2022-07-06T06:17:10;98880.06;;;15.70;100.00
65276;BME280;51875;49.994;14.052;2022-07-06T06:18:26;98880.50;;;15.79;100.00
65276;BME280;51875;49.994;14.052;2022-07-06T06:19:42;98878.75;;;15.80;100.00
65276;BME280;51875;49.994;14.052;2022-07-06T06:20:57;98882.91;;;15.86;100.00
65276;BME280;51875;49.994;14.052;2022-07-06T06:22:13;98877.44;;;15.90;100.00
65276;BME280;51875;49.994;14.052;2022-07-06T06:23:29;98877.25;;;15.95;100.00
65276;BME280;51875;49.994;14.052;2022-07-06T06:24:45;98875.19;;;16.02;100.00
65276;BME280;51875;49.994;14.052;2022-07-06T06:26:00;98875.59;;;16.13;100.00
65276;BME280;51875;49.994;14.052;2022-07-06T06:27:16;98876.25;;;16.18;100.00
65276;BME280;51875;49.994;14.052;2022-07-06T06:28:32;98872.66;;;16.19;100.00
65276;BME280;51875;49.994;14.052;2022-07-06T06:29:48;98871.47;;;16.27;100.00
65276;BME280;51875;49.994;14.052;2022-07-06T06:31:03;98882.59;;;16.35;100.00
65276;BME280;51875;49.994;14.052;2022-07-06T06:32:19;98882.16;;;16.44;100.00